Terminal Aerodrome Forecast
Issued by NWS

Home | Current Version | Previous Version | Text Only | Print | Product List | Glossary On
Versions: 1 2 3 4 5 6 7 8 9 10 11 12 13 14 15
947
FTUS46 KLOX 261137
TAFPMD
TAF
KPMD 261137Z 2612/2712 22008KT P6SM SKC
     FM261800 28012KT P6SM SCT250
     FM262100 25018G25KT P6SM SCT250
     FM270200 27015KT P6SM SKC
     FM270400 23012KT P6SM SKC=

USA.gov is the U.S. government's official web portal to all federal, state and local government web resources and services.